sensor_id;sensor_type;location;lat;lon;timestamp;temperature;humidity
80931;DHT22;70388;42.698;23.324;2024-02-15T00:00:40;5.70;65.60
80931;DHT22;70388;42.698;23.324;2024-02-15T00:03:06;5.60;65.50
80931;DHT22;70388;42.698;23.324;2024-02-15T00:05:33;5.60;65.80
80931;DHT22;70388;42.698;23.324;2024-02-15T00:08:02;5.50;65.90
80931;DHT22;70388;42.698;23.324;2024-02-15T00:10:28;5.50;65.90
80931;DHT22;70388;42.698;23.324;2024-02-15T00:12:54;5.50;65.80
80931;DHT22;70388;42.698;23.324;2024-02-15T00:15:19;5.60;65.80
80931;DHT22;70388;42.698;23.324;2024-02-15T00:17:45;5.60;65.80
80931;DHT22;70388;42.698;23.324;2024-02-15T00:20:14;5.60;65.70
80931;DHT22;70388;42.698;23.324;2024-02-15T00:22:40;5.60;65.80
80931;DHT22;70388;42.698;23.324;2024-02-15T00:25:08;5.60;65.80
80931;DHT22;70388;42.698;23.324;2024-02-15T00:27:37;5.80;66.40
80931;DHT22;70388;42.698;23.324;2024-02-15T00:30:03;5.70;65.40
80931;DHT22;70388;42.698;23.324;2024-02-15T00:32:36;5.90;65.00
80931;DHT22;70388;42.698;23.324;2024-02-15T00:35:03;5.70;64.80
80931;DHT22;70388;42.698;23.324;2024-02-15T00:37:33;5.70;65.10
80931;DHT22;70388;42.698;23.324;2024-02-15T00:39:59;5.70;65.20
80931;DHT22;70388;42.698;23.324;2024-02-15T00:42:25;5.70;64.90
80931;DHT22;70388;42.698;23.324;2024-02-15T00:44:51;5.60;65.20
80931;DHT22;70388;42.698;23.324;2024-02-15T00:47:17;5.60;65.20
80931;DHT22;70388;42.698;23.324;2024-02-15T00:49:45;5.60;65.30
80931;DHT22;70388;42.698;23.324;2024-02-15T00:52:11;5.50;65.50
80931;DHT22;70388;42.698;23.324;2024-02-15T00:54:36;5.50;65.60
80931;DHT22;70388;42.698;23.324;2024-02-15T00:57:02;5.50;65.80
80931;DHT22;70388;42.698;23.324;2024-02-15T00:59:28;5.50;65.70
80931;DHT22;70388;42.698;23.324;2024-02-15T01:01:54;5.60;65.60
80931;DHT22;70388;42.698;23.324;2024-02-15T01:04:20;5.50;65.60
80931;DHT22;70388;42.698;23.324;2024-02-15T01:06:46;5.50;65.50
80931;DHT22;70388;42.698;23.324;2024-02-15T01:09:11;5.50;65.60
80931;DHT22;70388;42.698;23.324;2024-02-15T01:11:38;5.40;65.70
80931;DHT22;70388;42.698;23.324;2024-02-15T01:14:04;5.40;65.80
80931;DHT22;70388;42.698;23.324;2024-02-15T01:16:30;5.50;65.70
80931;DHT22;70388;42.698;23.324;2024-02-15T01:18:56;5.40;65.80
80931;DHT22;70388;42.698;23.324;2024-02-15T01:21:22;5.40;66.10
80931;DHT22;70388;42.698;23.324;2024-02-15T01:23:50;5.40;66.10
80931;DHT22;70388;42.698;23.324;2024-02-15T01:26:19;5.40;66.20
80931;DHT22;70388;42.698;23.324;2024-02-15T01:28:45;5.40;66.00
80931;DHT22;70388;42.698;23.324;2024-02-15T01:31:11;5.30;66.30
80931;DHT22;70388;42.698;23.324;2024-02-15T01:33:38;5.40;66.00
80931;DHT22;70388;42.698;23.324;2024-02-15T01:36:04;5.40;65.70
80931;DHT22;70388;42.698;23.324;2024-02-15T01:38:30;5.40;65.90
80931;DHT22;70388;42.698;23.324;2024-02-15T01:40:56;5.40;65.80
80931;DHT22;70388;42.698;23.324;2024-02-15T01:43:22;5.40;66.00
80931;DHT22;70388;42.698;23.324;2024-02-15T01:45:48;5.50;65.80
80931;DHT22;70388;42.698;23.324;2024-02-15T01:48:17;5.40;65.90
80931;DHT22;70388;42.698;23.324;2024-02-15T01:50:43;5.40;66.00
80931;DHT22;70388;42.698;23.324;2024-02-15T01:53:09;5.40;65.90
80931;DHT22;70388;42.698;23.324;2024-02-15T01:55:37;5.40;65.80
80931;DHT22;70388;42.698;23.324;2024-02-15T01:58:03;5.50;66.80
80931;DHT22;70388;42.698;23.324;2024-02-15T02:00:30;5.40;65.50
80931;DHT22;70388;42.698;23.324;2024-02-15T02:02:57;5.50;65.40
80931;DHT22;70388;42.698;23.324;2024-02-15T02:05:27;5.50;65.40
80931;DHT22;70388;42.698;23.324;2024-02-15T02:07:56;5.40;65.60
80931;DHT22;70388;42.698;23.324;2024-02-15T02:10:25;5.40;65.70
80931;DHT22;70388;42.698;23.324;2024-02-15T02:12:52;5.40;65.90
80931;DHT22;70388;42.698;23.324;2024-02-15T02:15:18;5.40;65.70
80931;DHT22;70388;42.698;23.324;2024-02-15T02:17:49;5.30;65.80
80931;DHT22;70388;42.698;23.324;2024-02-15T02:20:16;5.20;66.10
80931;DHT22;70388;42.698;23.324;2024-02-15T02:22:44;5.20;66.60
80931;DHT22;70388;42.698;23.324;2024-02-15T02:25:12;5.20;66.70
80931;DHT22;70388;42.698;23.324;2024-02-15T02:27:39;5.10;67.00
80931;DHT22;70388;42.698;23.324;2024-02-15T02:30:15;5.10;66.90
80931;DHT22;70388;42.698;23.324;2024-02-15T02:32:47;5.10;67.00
80931;DHT22;70388;42.698;23.324;2024-02-15T02:35:13;5.10;66.70
80931;DHT22;70388;42.698;23.324;2024-02-15T02:37:41;5.20;66.80
80931;DHT22;70388;42.698;23.324;2024-02-15T02:40:09;5.20;66.80
80931;DHT22;70388;42.698;23.324;2024-02-15T02:42:57;5.10;67.10
80931;DHT22;70388;42.698;23.324;2024-02-15T02:45:22;5.10;67.00
80931;DHT22;70388;42.698;23.324;2024-02-15T02:47:51;5.10;67.10
80931;DHT22;70388;42.698;23.324;2024-02-15T02:50:18;5.10;67.20
80931;DHT22;70388;42.698;23.324;2024-02-15T02:52:44;5.10;67.00
80931;DHT22;70388;42.698;23.324;2024-02-15T02:55:10;5.10;66.90
80931;DHT22;70388;42.698;23.324;2024-02-15T02:57:37;5.10;67.20
80931;DHT22;70388;42.698;23.324;2024-02-15T03:00:05;5.10;67.10
80931;DHT22;70388;42.698;23.324;2024-02-15T03:02:34;5.10;67.10
80931;DHT22;70388;42.698;23.324;2024-02-15T03:05:04;5.10;67.00
80931;DHT22;70388;42.698;23.324;2024-02-15T03:07:35;5.00;66.90
80931;DHT22;70388;42.698;23.324;2024-02-15T03:10:01;4.90;67.40
80931;DHT22;70388;42.698;23.324;2024-02-15T03:12:30;5.00;67.60
80931;DHT22;70388;42.698;23.324;2024-02-15T03:14:56;5.00;67.30
80931;DHT22;70388;42.698;23.324;2024-02-15T03:17:23;5.00;67.50
80931;DHT22;70388;42.698;23.324;2024-02-15T03:19:49;5.00;67.50
80931;DHT22;70388;42.698;23.324;2024-02-15T03:22:15;5.00;67.40
80931;DHT22;70388;42.698;23.324;2024-02-15T03:24:41;5.00;67.50
80931;DHT22;70388;42.698;23.324;2024-02-15T03:27:08;5.00;67.60
80931;DHT22;70388;42.698;23.324;2024-02-15T03:29:36;5.00;67.60
80931;DHT22;70388;42.698;23.324;2024-02-15T03:32:02;4.90;67.70
80931;DHT22;70388;42.698;23.324;2024-02-15T03:34:30;4.90;67.70
80931;DHT22;70388;42.698;23.324;2024-02-15T03:36:57;4.90;68.10
80931;DHT22;70388;42.698;23.324;2024-02-15T03:39:23;4.80;68.30
80931;DHT22;70388;42.698;23.324;2024-02-15T03:41:49;4.80;68.20
80931;DHT22;70388;42.698;23.324;2024-02-15T03:44:17;4.80;69.10
80931;DHT22;70388;42.698;23.324;2024-02-15T03:46:44;4.80;68.20
80931;DHT22;70388;42.698;23.324;2024-02-15T03:49:17;4.80;68.30
80931;DHT22;70388;42.698;23.324;2024-02-15T03:51:43;4.80;68.20
80931;DHT22;70388;42.698;23.324;2024-02-15T03:54:11;4.80;68.20
80931;DHT22;70388;42.698;23.324;2024-02-15T03:56:37;4.70;68.20
80931;DHT22;70388;42.698;23.324;2024-02-15T03:59:11;4.70;68.50
80931;DHT22;70388;42.698;23.324;2024-02-15T04:01:38;4.70;68.40
80931;DHT22;70388;42.698;23.324;2024-02-15T04:04:05;4.70;68.20
80931;DHT22;70388;42.698;23.324;2024-02-15T04:06:31;4.80;68.30
80931;DHT22;70388;42.698;23.324;2024-02-15T04:08:59;4.70;68.10
80931;DHT22;70388;42.698;23.324;2024-02-15T04:11:25;4.70;68.70
80931;DHT22;70388;42.698;23.324;2024-02-15T04:13:51;4.70;68.40
80931;DHT22;70388;42.698;23.324;2024-02-15T04:16:17;4.70;68.30
80931;DHT22;70388;42.698;23.324;2024-02-15T04:18:43;4.70;68.50
80931;DHT22;70388;42.698;23.324;2024-02-15T04:21:10;4.70;68.60
80931;DHT22;70388;42.698;23.324;2024-02-15T04:23:36;4.60;68.40
80931;DHT22;70388;42.698;23.324;2024-02-15T04:26:02;4.60;68.80
80931;DHT22;70388;42.698;23.324;2024-02-15T04:28:29;4.60;68.90
80931;DHT22;70388;42.698;23.324;2024-02-15T04:30:54;4.60;68.90
80931;DHT22;70388;42.698;23.324;2024-02-15T04:33:21;4.60;68.60
80931;DHT22;70388;42.698;23.324;2024-02-15T04:35:47;4.60;68.60
80931;DHT22;70388;42.698;23.324;2024-02-15T04:38:15;4.60;68.60
80931;DHT22;70388;42.698;23.324;2024-02-15T04:40:41;4.50;69.10
80931;DHT22;70388;42.698;23.324;2024-02-15T04:43:07;4.50;69.20
80931;DHT22;70388;42.698;23.324;2024-02-15T04:45:34;4.50;69.20
80931;DHT22;70388;42.698;23.324;2024-02-15T04:48:01;4.60;68.90
80931;DHT22;70388;42.698;23.324;2024-02-15T04:50:28;4.70;68.80
80931;DHT22;70388;42.698;23.324;2024-02-15T04:52:55;4.60;69.10
80931;DHT22;70388;42.698;23.324;2024-02-15T04:55:21;4.60;68.90
80931;DHT22;70388;42.698;23.324;2024-02-15T04:57:51;4.60;68.80
80931;DHT22;70388;42.698;23.324;2024-02-15T05:00:21;4.60;68.90
80931;DHT22;70388;42.698;23.324;2024-02-15T05:02:48;4.60;68.90
80931;DHT22;70388;42.698;23.324;2024-02-15T05:05:15;4.60;68.90
80931;DHT22;70388;42.698;23.324;2024-02-15T05:07:42;4.60;68.90
80931;DHT22;70388;42.698;23.324;2024-02-15T05:10:08;4.60;68.90
80931;DHT22;70388;42.698;23.324;2024-02-15T05:12:36;4.50;69.20
80931;DHT22;70388;42.698;23.324;2024-02-15T05:15:02;4.30;69.80
80931;DHT22;70388;42.698;23.324;2024-02-15T05:17:39;4.40;69.70
80931;DHT22;70388;42.698;23.324;2024-02-15T05:20:11;4.40;69.70
80931;DHT22;70388;42.698;23.324;2024-02-15T05:22:39;4.40;69.70
80931;DHT22;70388;42.698;23.324;2024-02-15T05:25:06;4.40;69.80
80931;DHT22;70388;42.698;23.324;2024-02-15T05:27:34;4.40;69.60
80931;DHT22;70388;42.698;23.324;2024-02-15T05:29:59;4.50;69.60
80931;DHT22;70388;42.698;23.324;2024-02-15T05:32:25;4.50;69.60
80931;DHT22;70388;42.698;23.324;2024-02-15T05:34:53;4.40;69.70
80931;DHT22;70388;42.698;23.324;2024-02-15T05:37:20;4.50;69.90
80931;DHT22;70388;42.698;23.324;2024-02-15T05:39:46;4.50;69.60
80931;DHT22;70388;42.698;23.324;2024-02-15T05:42:12;4.40;69.70
80931;DHT22;70388;42.698;23.324;2024-02-15T05:44:38;4.50;69.60
80931;DHT22;70388;42.698;23.324;2024-02-15T05:47:04;4.50;69.50
80931;DHT22;70388;42.698;23.324;2024-02-15T05:49:29;4.50;69.20
80931;DHT22;70388;42.698;23.324;2024-02-15T05:51:55;4.60;69.20
80931;DHT22;70388;42.698;23.324;2024-02-15T05:54:21;4.60;69.00
80931;DHT22;70388;42.698;23.324;2024-02-15T05:56:50;4.70;68.50
80931;DHT22;70388;42.698;23.324;2024-02-15T05:59:19;4.70;68.70
80931;DHT22;70388;42.698;23.324;2024-02-15T06:01:46;4.60;69.00
80931;DHT22;70388;42.698;23.324;2024-02-15T06:04:15;4.70;68.80
80931;DHT22;70388;42.698;23.324;2024-02-15T06:06:42;4.60;68.80
80931;DHT22;70388;42.698;23.324;2024-02-15T06:09:08;4.50;69.30
80931;DHT22;70388;42.698;23.324;2024-02-15T06:11:34;4.60;69.20
80931;DHT22;70388;42.698;23.324;2024-02-15T06:14:01;4.60;69.20
80931;DHT22;70388;42.698;23.324;2024-02-15T06:16:27;4.70;69.00
80931;DHT22;70388;42.698;23.324;2024-02-15T06:18:52;4.80;68.60
80931;DHT22;70388;42.698;23.324;2024-02-15T06:21:18;4.80;68.20
80931;DHT22;70388;42.698;23.324;2024-02-15T06:23:46;4.90;68.10
80931;DHT22;70388;42.698;23.324;2024-02-15T06:26:13;4.90;68.10
80931;DHT22;70388;42.698;23.324;2024-02-15T06:28:39;5.00;67.90
80931;DHT22;70388;42.698;23.324;2024-02-15T06:31:23;5.10;67.60
80931;DHT22;70388;42.698;23.324;2024-02-15T06:34:07;5.40;67.40
80931;DHT22;70388;42.698;23.324;2024-02-15T06:36:56;5.50;66.20
80931;DHT22;70388;42.698;23.324;2024-02-15T06:39:40;5.50;66.30
80931;DHT22;70388;42.698;23.324;2024-02-15T06:42:07;5.50;66.00
80931;DHT22;70388;42.698;23.324;2024-02-15T06:44:33;5.40;66.30
80931;DHT22;70388;42.698;23.324;2024-02-15T06:47:00;5.40;66.30
80931;DHT22;70388;42.698;23.324;2024-02-15T06:49:26;5.40;66.50
80931;DHT22;70388;42.698;23.324;2024-02-15T06:51:52;5.40;66.40
80931;DHT22;70388;42.698;23.324;2024-02-15T06:54:18;5.40;66.10
80931;DHT22;70388;42.698;23.324;2024-02-15T06:56:45;5.40;66.30
80931;DHT22;70388;42.698;23.324;2024-02-15T06:59:14;5.40;66.50
80931;DHT22;70388;42.698;23.324;2024-02-15T07:01:43;5.30;66.50
80931;DHT22;70388;42.698;23.324;2024-02-15T07:04:09;5.40;66.60
80931;DHT22;70388;42.698;23.324;2024-02-15T07:06:38;5.50;66.00
80931;DHT22;70388;42.698;23.324;2024-02-15T07:09:07;5.50;66.10
80931;DHT22;70388;42.698;23.324;2024-02-15T07:11:33;5.40;65.80
80931;DHT22;70388;42.698;23.324;2024-02-15T07:14:05;5.40;66.10
80931;DHT22;70388;42.698;23.324;2024-02-15T07:16:33;5.30;66.80
80931;DHT22;70388;42.698;23.324;2024-02-15T07:18:59;5.20;66.60
80931;DHT22;70388;42.698;23.324;2024-02-15T07:21:25;5.20;66.90
80931;DHT22;70388;42.698;23.324;2024-02-15T07:23:53;5.10;66.90
80931;DHT22;70388;42.698;23.324;2024-02-15T07:26:21;5.10;67.00
80931;DHT22;70388;42.698;23.324;2024-02-15T07:28:55;5.00;67.60
80931;DHT22;70388;42.698;23.324;2024-02-15T07:31:23;5.00;67.60
80931;DHT22;70388;42.698;23.324;2024-02-15T07:33:53;5.00;67.50
80931;DHT22;70388;42.698;23.324;2024-02-15T07:36:21;5.10;67.60
80931;DHT22;70388;42.698;23.324;2024-02-15T07:38:50;5.10;67.50
80931;DHT22;70388;42.698;23.324;2024-02-15T07:41:22;5.20;66.90
80931;DHT22;70388;42.698;23.324;2024-02-15T07:43:48;5.20;67.00
80931;DHT22;70388;42.698;23.324;2024-02-15T07:46:15;5.30;66.70
80931;DHT22;70388;42.698;23.324;2024-02-15T07:48:45;5.40;66.70
80931;DHT22;70388;42.698;23.324;2024-02-15T07:51:15;5.50;66.50
80931;DHT22;70388;42.698;23.324;2024-02-15T07:53:41;5.60;65.90
80931;DHT22;70388;42.698;23.324;2024-02-15T07:56:09;5.70;65.60
80931;DHT22;70388;42.698;23.324;2024-02-15T07:58:38;5.70;65.40
80931;DHT22;70388;42.698;23.324;2024-02-15T08:01:07;5.70;65.30
80931;DHT22;70388;42.698;23.324;2024-02-15T08:03:33;5.70;65.60
80931;DHT22;70388;42.698;23.324;2024-02-15T08:06:03;5.80;65.40
80931;DHT22;70388;42.698;23.324;2024-02-15T08:08:33;5.90;65.00
80931;DHT22;70388;42.698;23.324;2024-02-15T08:11:03;6.10;64.70
80931;DHT22;70388;42.698;23.324;2024-02-15T08:13:29;6.00;64.60
80931;DHT22;70388;42.698;23.324;2024-02-15T08:15:55;6.10;65.20
80931;DHT22;70388;42.698;23.324;2024-02-15T08:18:21;6.20;64.60
80931;DHT22;70388;42.698;23.324;2024-02-15T08:20:47;6.40;64.30
80931;DHT22;70388;42.698;23.324;2024-02-15T08:23:13;6.40;63.30
80931;DHT22;70388;42.698;23.324;2024-02-15T08:25:39;6.80;62.80
80931;DHT22;70388;42.698;23.324;2024-02-15T08:28:06;7.80;60.30
80931;DHT22;70388;42.698;23.324;2024-02-15T08:30:33;9.20;56.80
80931;DHT22;70388;42.698;23.324;2024-02-15T08:32:59;10.80;52.90
80931;DHT22;70388;42.698;23.324;2024-02-15T08:35:25;12.00;49.30
80931;DHT22;70388;42.698;23.324;2024-02-15T08:37:51;12.50;47.50
80931;DHT22;70388;42.698;23.324;2024-02-15T08:40:18;12.70;47.20
80931;DHT22;70388;42.698;23.324;2024-02-15T08:42:50;13.10;45.90
80931;DHT22;70388;42.698;23.324;2024-02-15T08:45:15;13.20;45.70
80931;DHT22;70388;42.698;23.324;2024-02-15T08:47:43;13.80;44.40
80931;DHT22;70388;42.698;23.324;2024-02-15T08:50:10;13.90;44.30
80931;DHT22;70388;42.698;23.324;2024-02-15T08:52:37;14.00;43.90
80931;DHT22;70388;42.698;23.324;2024-02-15T08:55:09;14.10;43.70
80931;DHT22;70388;42.698;23.324;2024-02-15T08:57:36;15.00;42.50
80931;DHT22;70388;42.698;23.324;2024-02-15T09:00:07;14.90;41.80
80931;DHT22;70388;42.698;23.324;2024-02-15T09:02:44;14.90;42.40
80931;DHT22;70388;42.698;23.324;2024-02-15T09:05:10;15.40;41.10
80931;DHT22;70388;42.698;23.324;2024-02-15T09:07:40;15.70;40.40
80931;DHT22;70388;42.698;23.324;2024-02-15T09:10:08;15.70;40.40
80931;DHT22;70388;42.698;23.324;2024-02-15T09:12:36;15.50;40.40
80931;DHT22;70388;42.698;23.324;2024-02-15T09:15:09;15.20;41.00
80931;DHT22;70388;42.698;23.324;2024-02-15T09:17:36;15.10;41.30
80931;DHT22;70388;42.698;23.324;2024-02-15T09:20:10;15.50;41.00
80931;DHT22;70388;42.698;23.324;2024-02-15T09:22:58;15.60;40.30
80931;DHT22;70388;42.698;23.324;2024-02-15T09:25:24;14.80;41.00
80931;DHT22;70388;42.698;23.324;2024-02-15T09:27:51;14.90;40.80
80931;DHT22;70388;42.698;23.324;2024-02-15T09:30:17;14.80;41.60
80931;DHT22;70388;42.698;23.324;2024-02-15T09:32:44;14.60;41.70
80931;DHT22;70388;42.698;23.324;2024-02-15T09:35:10;15.20;41.00
80931;DHT22;70388;42.698;23.324;2024-02-15T09:37:46;15.40;39.80
80931;DHT22;70388;42.698;23.324;2024-02-15T09:40:16;14.60;40.80
80931;DHT22;70388;42.698;23.324;2024-02-15T09:42:47;14.60;41.40
80931;DHT22;70388;42.698;23.324;2024-02-15T09:45:13;14.40;41.80
80931;DHT22;70388;42.698;23.324;2024-02-15T09:47:44;14.40;41.70
80931;DHT22;70388;42.698;23.324;2024-02-15T09:50:15;14.20;42.60
80931;DHT22;70388;42.698;23.324;2024-02-15T09:52:45;14.20;42.60
80931;DHT22;70388;42.698;23.324;2024-02-15T09:55:11;14.20;42.00
80931;DHT22;70388;42.698;23.324;2024-02-15T09:57:40;14.20;42.30
80931;DHT22;70388;42.698;23.324;2024-02-15T10:00:07;14.10;42.70
80931;DHT22;70388;42.698;23.324;2024-02-15T10:02:35;14.50;42.10
80931;DHT22;70388;42.698;23.324;2024-02-15T10:05:02;14.50;41.90
80931;DHT22;70388;42.698;23.324;2024-02-15T10:07:28;15.10;41.20
80931;DHT22;70388;42.698;23.324;2024-02-15T10:09:54;15.80;39.40
80931;DHT22;70388;42.698;23.324;2024-02-15T10:12:20;15.00;40.30
80931;DHT22;70388;42.698;23.324;2024-02-15T10:14:52;13.70;42.70
80931;DHT22;70388;42.698;23.324;2024-02-15T10:17:20;12.90;44.60
80931;DHT22;70388;42.698;23.324;2024-02-15T10:20:06;11.90;46.40
80931;DHT22;70388;42.698;23.324;2024-02-15T10:22:32;11.00;48.20
80931;DHT22;70388;42.698;23.324;2024-02-15T10:25:14;10.50;49.70
80931;DHT22;70388;42.698;23.324;2024-02-15T10:27:41;10.20;50.40
80931;DHT22;70388;42.698;23.324;2024-02-15T10:30:19;10.10;50.80
80931;DHT22;70388;42.698;23.324;2024-02-15T10:32:46;9.90;51.20
80931;DHT22;70388;42.698;23.324;2024-02-15T10:35:23;9.80;51.60
80931;DHT22;70388;42.698;23.324;2024-02-15T10:37:49;9.80;51.90
80931;DHT22;70388;42.698;23.324;2024-02-15T10:40:22;9.70;52.10
80931;DHT22;70388;42.698;23.324;2024-02-15T10:42:51;9.70;52.00
80931;DHT22;70388;42.698;23.324;2024-02-15T10:45:17;9.60;52.20
80931;DHT22;70388;42.698;23.324;2024-02-15T10:47:46;9.50;52.60
80931;DHT22;70388;42.698;23.324;2024-02-15T10:50:15;9.40;52.80
80931;DHT22;70388;42.698;23.324;2024-02-15T10:52:55;9.50;52.60
80931;DHT22;70388;42.698;23.324;2024-02-15T10:55:53;9.50;52.60
80931;DHT22;70388;42.698;23.324;2024-02-15T10:58:20;9.40;52.80
80931;DHT22;70388;42.698;23.324;2024-02-15T11:00:47;9.30;52.80
80931;DHT22;70388;42.698;23.324;2024-02-15T11:03:24;9.40;53.10
80931;DHT22;70388;42.698;23.324;2024-02-15T11:05:51;9.50;52.90
80931;DHT22;70388;42.698;23.324;2024-02-15T11:08:18;9.50;52.90
80931;DHT22;70388;42.698;23.324;2024-02-15T11:10:45;9.60;53.00
80931;DHT22;70388;42.698;23.324;2024-02-15T11:13:11;9.70;52.90
80931;DHT22;70388;42.698;23.324;2024-02-15T11:18:47;9.70;52.50
80931;DHT22;70388;42.698;23.324;2024-02-15T11:21:18;9.80;52.60
80931;DHT22;70388;42.698;23.324;2024-02-15T11:23:44;9.80;52.70
80931;DHT22;70388;42.698;23.324;2024-02-15T11:26:48;9.80;52.60
80931;DHT22;70388;42.698;23.324;2024-02-15T11:29:55;9.70;53.10
80931;DHT22;70388;42.698;23.324;2024-02-15T11:35:34;9.80;53.20
80931;DHT22;70388;42.698;23.324;2024-02-15T11:38:01;9.70;53.70
80931;DHT22;70388;42.698;23.324;2024-02-15T11:43:08;9.60;53.90
80931;DHT22;70388;42.698;23.324;2024-02-15T11:45:35;9.60;54.10
80931;DHT22;70388;42.698;23.324;2024-02-15T11:48:11;9.60;54.30
80931;DHT22;70388;42.698;23.324;2024-02-15T11:50:39;9.60;54.30
80931;DHT22;70388;42.698;23.324;2024-02-15T11:53:07;9.70;54.50
80931;DHT22;70388;42.698;23.324;2024-02-15T11:55:37;9.60;54.80
80931;DHT22;70388;42.698;23.324;2024-02-15T11:58:04;9.60;55.10
80931;DHT22;70388;42.698;23.324;2024-02-15T12:00:42;9.70;54.90
80931;DHT22;70388;42.698;23.324;2024-02-15T12:03:27;9.60;54.90
80931;DHT22;70388;42.698;23.324;2024-02-15T12:06:11;9.70;54.70
80931;DHT22;70388;42.698;23.324;2024-02-15T12:08:56;9.80;54.60
80931;DHT22;70388;42.698;23.324;2024-02-15T12:11:40;9.90;54.60
80931;DHT22;70388;42.698;23.324;2024-02-15T12:17:47;10.10;54.00
80931;DHT22;70388;42.698;23.324;2024-02-15T12:20:32;10.00;54.00
80931;DHT22;70388;42.698;23.324;2024-02-15T12:23:00;10.00;54.30
80931;DHT22;70388;42.698;23.324;2024-02-15T12:25:33;9.90;54.50
80931;DHT22;70388;42.698;23.324;2024-02-15T12:28:02;9.90;54.60
80931;DHT22;70388;42.698;23.324;2024-02-15T12:30:33;9.90;54.90
80931;DHT22;70388;42.698;23.324;2024-02-15T12:33:13;9.90;54.80
80931;DHT22;70388;42.698;23.324;2024-02-15T12:35:45;9.90;55.00
80931;DHT22;70388;42.698;23.324;2024-02-15T12:38:12;9.90;56.00
80931;DHT22;70388;42.698;23.324;2024-02-15T12:40:45;9.90;55.10
80931;DHT22;70388;42.698;23.324;2024-02-15T12:43:11;10.00;55.00
80931;DHT22;70388;42.698;23.324;2024-02-15T12:45:39;10.10;54.90
80931;DHT22;70388;42.698;23.324;2024-02-15T12:48:06;10.20;54.30
80931;DHT22;70388;42.698;23.324;2024-02-15T12:50:33;10.40;54.10
80931;DHT22;70388;42.698;23.324;2024-02-15T12:53:00;10.50;53.60
80931;DHT22;70388;42.698;23.324;2024-02-15T12:55:32;10.70;53.30
80931;DHT22;70388;42.698;23.324;2024-02-15T12:58:09;10.80;52.90
80931;DHT22;70388;42.698;23.324;2024-02-15T13:00:39;11.10;52.60
80931;DHT22;70388;42.698;23.324;2024-02-15T13:03:06;11.30;52.20
80931;DHT22;70388;42.698;23.324;2024-02-15T13:05:36;11.30;51.60
80931;DHT22;70388;42.698;23.324;2024-02-15T13:08:03;11.30;51.90
80931;DHT22;70388;42.698;23.324;2024-02-15T13:10:36;11.20;51.90
80931;DHT22;70388;42.698;23.324;2024-02-15T13:13:02;11.20;51.80
80931;DHT22;70388;42.698;23.324;2024-02-15T13:15:28;11.20;51.90
80931;DHT22;70388;42.698;23.324;2024-02-15T13:18:02;11.20;51.80
80931;DHT22;70388;42.698;23.324;2024-02-15T13:20:31;11.30;51.70
80931;DHT22;70388;42.698;23.324;2024-02-15T13:23:04;11.30;51.50
80931;DHT22;70388;42.698;23.324;2024-02-15T13:25:49;11.30;51.50
80931;DHT22;70388;42.698;23.324;2024-02-15T13:28:15;11.20;51.70
80931;DHT22;70388;42.698;23.324;2024-02-15T13:30:42;11.20;51.70
80931;DHT22;70388;42.698;23.324;2024-02-15T13:33:11;11.10;51.90
80931;DHT22;70388;42.698;23.324;2024-02-15T13:35:38;11.10;52.20
80931;DHT22;70388;42.698;23.324;2024-02-15T13:38:04;11.10;52.30
80931;DHT22;70388;42.698;23.324;2024-02-15T13:40:29;11.20;52.00
80931;DHT22;70388;42.698;23.324;2024-02-15T13:43:00;11.30;51.60
80931;DHT22;70388;42.698;23.324;2024-02-15T13:45:38;11.40;51.70
80931;DHT22;70388;42.698;23.324;2024-02-15T13:48:05;11.40;51.20
80931;DHT22;70388;42.698;23.324;2024-02-15T13:50:36;11.60;51.20
80931;DHT22;70388;42.698;23.324;2024-02-15T13:53:03;11.50;51.00
80931;DHT22;70388;42.698;23.324;2024-02-15T13:55:29;11.50;50.90
80931;DHT22;70388;42.698;23.324;2024-02-15T13:57:55;11.40;51.00
80931;DHT22;70388;42.698;23.324;2024-02-15T14:00:22;11.30;51.30
80931;DHT22;70388;42.698;23.324;2024-02-15T14:02:52;11.20;51.70
80931;DHT22;70388;42.698;23.324;2024-02-15T14:05:19;11.20;51.80
80931;DHT22;70388;42.698;23.324;2024-02-15T14:07:52;11.20;51.50
80931;DHT22;70388;42.698;23.324;2024-02-15T14:10:19;11.00;52.00
80931;DHT22;70388;42.698;23.324;2024-02-15T14:12:50;10.80;52.50
80931;DHT22;70388;42.698;23.324;2024-02-15T14:15:18;10.70;53.00
80931;DHT22;70388;42.698;23.324;2024-02-15T14:17:45;10.80;53.00
80931;DHT22;70388;42.698;23.324;2024-02-15T14:20:11;10.90;52.80
80931;DHT22;70388;42.698;23.324;2024-02-15T14:22:45;10.90;53.70
80931;DHT22;70388;42.698;23.324;2024-02-15T14:25:11;11.00;52.70
80931;DHT22;70388;42.698;23.324;2024-02-15T14:27:39;11.10;52.40
80931;DHT22;70388;42.698;23.324;2024-02-15T14:30:06;11.10;52.20
80931;DHT22;70388;42.698;23.324;2024-02-15T14:32:50;11.10;52.10
80931;DHT22;70388;42.698;23.324;2024-02-15T14:35:26;11.20;52.10
80931;DHT22;70388;42.698;23.324;2024-02-15T14:37:53;11.20;52.20
80931;DHT22;70388;42.698;23.324;2024-02-15T14:40:21;11.10;53.50
80931;DHT22;70388;42.698;23.324;2024-02-15T14:42:48;11.10;52.30
80931;DHT22;70388;42.698;23.324;2024-02-15T14:45:14;11.10;52.30
80931;DHT22;70388;42.698;23.324;2024-02-15T14:47:40;11.20;52.20
80931;DHT22;70388;42.698;23.324;2024-02-15T14:50:08;11.20;52.40
80931;DHT22;70388;42.698;23.324;2024-02-15T14:52:35;11.20;52.40
80931;DHT22;70388;42.698;23.324;2024-02-15T14:55:04;11.20;52.30
80931;DHT22;70388;42.698;23.324;2024-02-15T14:57:32;11.30;52.20
80931;DHT22;70388;42.698;23.324;2024-02-15T14:59:59;11.20;52.40
80931;DHT22;70388;42.698;23.324;2024-02-15T15:02:25;11.10;52.50
80931;DHT22;70388;42.698;23.324;2024-02-15T15:04:50;11.00;52.90
80931;DHT22;70388;42.698;23.324;2024-02-15T15:07:34;10.90;53.10
80931;DHT22;70388;42.698;23.324;2024-02-15T15:10:18;11.00;52.90
80931;DHT22;70388;42.698;23.324;2024-02-15T15:13:03;11.00;52.70
80931;DHT22;70388;42.698;23.324;2024-02-15T15:15:28;11.00;52.90
80931;DHT22;70388;42.698;23.324;2024-02-15T15:17:54;11.10;53.00
80931;DHT22;70388;42.698;23.324;2024-02-15T15:20:21;11.00;53.10
80931;DHT22;70388;42.698;23.324;2024-02-15T15:22:47;11.00;53.00
80931;DHT22;70388;42.698;23.324;2024-02-15T15:25:12;11.00;53.10
80931;DHT22;70388;42.698;23.324;2024-02-15T15:27:38;10.90;53.20
80931;DHT22;70388;42.698;23.324;2024-02-15T15:30:06;11.00;54.20
80931;DHT22;70388;42.698;23.324;2024-02-15T15:32:32;10.90;52.90
80931;DHT22;70388;42.698;23.324;2024-02-15T15:34:59;10.90;53.00
80931;DHT22;70388;42.698;23.324;2024-02-15T15:37:25;10.90;53.10
80931;DHT22;70388;42.698;23.324;2024-02-15T15:39:50;10.90;53.70
80931;DHT22;70388;42.698;23.324;2024-02-15T15:42:16;10.90;54.30
80931;DHT22;70388;42.698;23.324;2024-02-15T15:44:43;10.80;54.70
80931;DHT22;70388;42.698;23.324;2024-02-15T15:47:09;10.80;54.70